• Join FlightAware (Why Join?)
  • Login
  • US Flag 
07:24AM EDT


 

Airport Tracker/Info


-or-


 

Live Flight TrackerFlight Track Log ✈ AFL150 ✈ 30-Mar-2014 ✈ UUEE / SVO - MUHA / HAV

Flight Track Log - Related Links

Times and Time Zones

All times are in EDT time to prevent confusion due to time zone crossing. See the AFL150 flight status page for this flight to view local times or setup timezone preferences in your user account.

Time Position Orientation Groundspeed Altitude Reporting Facility
EDT Latitude Longitude Course Direction KTS MPH feet Rate Location/Type
06:22AM 56.2265 36.6666 307° West  Level Estimated
06:23AM 56.2964 36.4942 306° West  Level Estimated
06:24AM 56.3660 36.3211 306° West  Level Estimated
06:25AM 56.4355 36.1475 306° West  Level Estimated
06:26AM 56.5047 35.9731 306° West  Level Estimated
06:27AM 56.5736 35.7982 306° West  Level Estimated
06:28AM 56.6423 35.6226 305° West  Level Estimated
06:29AM 56.7108 35.4464 305° West  Level Estimated
06:30AM 56.7789 35.2695 305° West  Level Estimated
06:31AM 56.8469 35.0920 305° West  Level Estimated
06:32AM 56.9146 34.9139 305° West  Level Estimated
06:33AM 56.9820 34.7351 305° West  Level Estimated
06:34AM 57.0492 34.5556 305° West  Level Estimated
06:35AM 57.1162 34.3756 304° West  Level Estimated
06:36AM 57.1828 34.1948 304° West  Level Estimated
06:37AM 57.2492 34.0134 304° West  Level Estimated
06:38AM 57.3154 33.8314 304° West  Level Estimated
06:39AM 57.3813 33.6487 304° West  Level Estimated
06:40AM 57.4469 33.4653 304° West  Level Estimated
06:41AM 57.5122 33.2813 304° West  Level Estimated
06:42AM 57.5773 33.0966 303° West  Level Estimated
06:43AM 57.6421 32.9113 303° West  Level Estimated
06:44AM 57.7067 32.7253 303° West  Level Estimated
06:45AM 57.7709 32.5386 303° West  Level Estimated
06:46AM 57.8349 32.3513 303° West  Level Estimated
06:47AM 57.8986 32.1633 303° West  Level Estimated
06:47AM 56.5003 31.7561 278° West 426 490 34,000  Level FlightAware ADS-B (EVDA / DGP)
06:48AM 56.5176 31.5388 278° West 425 489 34,000  Level FlightAware ADS-B (EVDA / DGP)
06:49AM 56.5343 31.3249 278° West 426 490 34,000  Level FlightAware ADS-B (EVDA / DGP)
06:50AM 56.5647 31.1211 291° West 425 489 34,000  Level FlightAware ADS-B (EVDA / DGP)
06:51AM 56.6199 30.9331 305° West 425 489 34,000  Level FlightAware ADS-B (EVDA / DGP)
06:52AM 56.6951 30.7674 311° West 426 490 34,000  Level FlightAware ADS-B (EVDA / DGP)
06:53AM 56.7642 30.5936 305° West 426 490 34,000  Level FlightAware ADS-B (EVDA / DGP)
06:54AM 56.8299 30.4198 304° West 426 490 34,000  Level FlightAware ADS-B (EVDA / DGP)
06:55AM 56.8876 30.2635 304° West 427 491 34,000  Level FlightAware ADS-B (EVDA / DGP)
06:56AM 56.9530 30.0850 304° West 426 490 34,000  Level FlightAware ADS-B (EVDA / DGP)
06:57AM 57.0275 29.8796 304° West 424 488 34,000  Level FlightAware ADS-B (EVDA / DGP)
06:58AM 57.0924 29.6997 304° West 424 488 34,000  Level FlightAware ADS-B (EVDA / DGP)
06:59AM 57.1565 29.5208 303° West 428 493 34,000  Level FlightAware ADS-B (EVDA / DGP)
07:00AM 57.2177 29.3486 303° West 429 494 34,000  Level FlightAware ADS-B (EVDA / DGP)
07:01AM 57.2831 29.1634 303° West 427 491 34,000  Level FlightAware ADS-B (EVDA / DGP)
07:02AM 57.3472 28.9805 303° West 426 490 34,000  Level FlightAware ADS-B (EVDA / DGP)
07:03AM 57.4134 28.7902 303° West 424 488 34,000  Level FlightAware ADS-B (EVDA / DGP)
07:04AM 57.4943 28.5554 303° West 427 491 34,000  Level FlightAware ADS-B (EVDA / DGP)
07:05AM 57.5574 28.3708 302° West 427 491 34,000  Level FlightAware ADS-B (EVDA / DGP)
07:06AM 57.6208 28.1840 302° West 425 489 34,000  Level FlightAware ADS-B (EVDA / DGP)
07:07AM 57.6745 28.0244 302° West 425 489 34,000  Level FlightAware ADS-B (EVDA / DGP)
07:08AM 57.7489 27.8022 302° West 427 491 34,000  Level FlightAware ADS-B (EVDA / DGP)
07:09AM 57.8105 27.6162 302° West 429 494 34,000  Level FlightAware ADS-B (EVDA / DGP)
07:10AM 57.8618 27.4072 291° West 431 496 34,000  Level FlightAware ADS-B (EVDA / DGP)
07:11AM 57.9041 27.1974 291° West 433 498 34,000  Level FlightAware ADS-B (EVDA / DGP)
07:12AM 57.9526 26.9562 291° West 434 499 34,000  Level FlightAware ADS-B (EVDA / DGP)
07:13AM 57.9969 26.7322 290° West 435 501 34,000  Level FlightAware ADS-B (EVDA / DGP)
07:14AM 58.0387 26.5192 290° West 437 503 34,000  Level FlightAware ADS-B (EVDA / DGP)
07:15AM 58.0804 26.3043 290° West 438 504 34,000  Level FlightAware ADS-B (EVDA / DGP)
07:16AM 58.1200 26.0979 290° West 437 503 34,000  Level FlightAware ADS-B (EVDA / DGP)
07:17AM 58.1619 25.8780 290° West 437 503 34,000  Level FlightAware ADS-B (EVDA / DGP)
07:18AM 58.2029 25.6598 290° West 437 503 34,000  Level FlightAware ADS-B (EVDA / DGP)
07:19AM 58.2429 25.4439 289° West 439 505 34,000  Level FlightAware ADS-B (EVDA / DGP)
07:20AM 58.2825 25.2278 289° West 438 504 34,000  Level FlightAware ADS-B (EVDA / DGP)
07:21AM 58.3081 25.0871 289° West 438 504 34,000  Level FlightAware ADS-B (EVDA / DGP)
07:22AM 58.3366 24.9292 289° West 439 505 34,000  Level FlightAware ADS-B (EVDA / DGP)
07:23AM 58.3253 24.9920 289° West 439 505 34,000  Level FlightAware ADS-B (EVDA / DGP)
07:34AM 58.7384 22.2417 285° West 439 505 34,000  Level FlightAware ADS-B (ESKB)
07:35AM 58.7621 22.0635 284° West 438 504 34,000  Level FlightAware ADS-B (ESKB)
07:36AM 58.8027 21.7538 284° West 439 505 34,000  Level FlightAware ADS-B (ESKB)
07:37AM 58.8258 21.5745 284° West 441 507 34,000  Level FlightAware ADS-B (ESKB)
07:37AM 58.8380 21.4795 284° West 442 509 34,000  Level FlightAware ADS-B (ESKB)
07:38AM 58.8705 21.2767 289° West 441 507 34,000  Level FlightAware ADS-B (ESKB)
07:39AM 58.8970 21.1254 288° West 440 506 34,000  Level FlightAware ADS-B (ESKB)
07:39AM 58.9182 20.9987 288° West 440 506 34,000  Level FlightAware ADS-B (ESKB)
07:40AM 58.9412 20.8599 288° West 439 505 34,000  Level FlightAware ADS-B (ESKB)
07:41AM 58.9675 20.6980 288° West 439 505 34,000  Level FlightAware ADS-B (ESKB)
07:42AM 59.0075 20.4501 287° West 440 506 34,000  Level FlightAware ADS-B (ESKB)
07:42AM 59.0321 20.2961 287° West 441 507 34,000  Level FlightAware ADS-B (ESKB)
07:43AM 59.0555 20.1489 287° West 441 507 34,000  Level FlightAware ADS-B (ESKB)
07:44AM 59.0784 20.0029 287° West 442 509 34,000  Level FlightAware ADS-B (ESKB)
07:44AM 59.1031 19.8444 287° West 443 510 34,000  Level FlightAware ADS-B (ESKB)
07:45AM 59.1256 19.6985 287° West 443 510 34,000  Level FlightAware ADS-B (ESKB)
07:46AM 59.1488 19.5466 287° West 442 509 34,000  Level FlightAware ADS-B (ESKB)
07:46AM 59.1730 19.3867 286° West 442 509 34,000  Level FlightAware ADS-B (ESKB)
07:47AM 59.1954 19.2372 286° West 442 509 34,000  Level FlightAware ADS-B (ESKB)
07:48AM 59.2178 19.0867 286° West 442 509 34,000  Level FlightAware ADS-B (ESKB)
07:48AM 59.2404 18.9325 286° West 443 510 34,000  Level FlightAware ADS-B (ESKB)
07:49AM 59.2630 18.7779 286° West 443 510 34,000  Level FlightAware ADS-B (ESKB)
07:50AM 59.2848 18.6270 286° West 444 511 34,000  Level FlightAware ADS-B (ESKB)
07:50AM 59.3074 18.4692 286° West 444 511 34,000  Level FlightAware ADS-B (ESKB)
07:51AM 59.3298 18.3119 285° West 445 512 34,000  Level FlightAware ADS-B (ESKB)
07:52AM 59.3522 18.1522 285° West 446 513 34,000  Level FlightAware ADS-B (ESKB)
07:52AM 59.3745 17.9920 285° West 447 514 34,000  Level FlightAware ADS-B (ESKB)
07:53AM 59.3963 17.8338 285° West 448 516 34,000  Level FlightAware ADS-B (ESKB)
07:54AM 59.4153 17.6942 285° West 449 517 34,000  Level FlightAware ADS-B (ESKB)
07:54AM 59.4386 17.5215 285° West 450 518 34,000  Level FlightAware ADS-B (ESKB)
07:55AM 59.4599 17.3616 285° West 452 520 34,000  Level FlightAware ADS-B (ESKB)
07:56AM 59.4811 17.2012 285° West 451 519 34,000  Level FlightAware ADS-B (ESKB)
07:56AM 59.5017 17.0433 284° West 451 519 34,000  Level FlightAware ADS-B (ESKB)
07:57AM 59.5209 16.8952 284° West 452 520 34,000  Level FlightAware ADS-B (ESKB)
07:58AM 59.5426 16.7254 284° West 453 521 34,000  Level FlightAware ADS-B (ESKB)
07:58AM 59.5629 16.5653 284° West 454 522 34,000  Level FlightAware ADS-B (ESKB)
07:59AM 59.5829 16.4056 284° West 454 522 34,000  Level FlightAware ADS-B (ESKB)
08:00AM 59.6036 16.2390 284° West 454 522 34,000  Level FlightAware ADS-B (ESKB)
08:01AM 59.6234 16.0769 284° West 455 524 34,000  Level FlightAware ADS-B (ESKB)
08:01AM 59.6428 15.9171 283° West 455 524 34,000  Level FlightAware ADS-B (ESKB)
08:02AM 59.6699 15.6897 283° West 456 525 34,000  Level FlightAware ADS-B (ESKB)
08:03AM 59.7130 15.3206 283° West 459 528 34,000  Level FlightAware ADS-B
08:04AM 59.7271 15.1976 283° West 459 528 34,000  Level FlightAware ADS-B
08:04AM 59.7404 15.0808 283° West 458 527 34,000  Level FlightAware ADS-B
08:05AM 59.7548 14.9534 283° West 459 528 34,000  Level FlightAware ADS-B
08:05AM 59.7752 14.7708 282° West 460 529 34,000  Level FlightAware ADS-B
08:06AM 59.7886 14.6496 282° West 461 531 34,000  Level FlightAware ADS-B
08:06AM 59.8031 14.5170 282° West 461 531 34,000  Level FlightAware ADS-B
08:07AM 59.8168 14.3893 282° West 462 532 34,000  Level FlightAware ADS-B
08:07AM 59.8300 14.2665 282° West 463 533 34,000  Level FlightAware ADS-B
08:08AM 59.8429 14.1450 282° West 463 533 34,000  Level FlightAware ADS-B
08:09AM 59.8699 13.8867 281° West 461 531 34,000  Level FlightAware ADS-B
08:10AM 59.8897 13.6935 281° West 462 532 34,000  Level FlightAware ADS-B
08:10AM 59.9083 13.5093 280° West 462 532 34,000  Level FlightAware ADS-B
08:11AM 59.9214 13.3772 280° West 464 534 34,000  Level FlightAware ADS-B
08:11AM 59.9339 13.2504 280° West 463 533 34,000  Level FlightAware ADS-B
08:12AM 59.9464 13.1225 280° West 463 533 34,000  Level FlightAware ADS-B
08:12AM 59.9589 12.9938 280° West 463 533 34,000  Level FlightAware ADS-B
08:13AM 59.9709 12.8686 280° West 463 533 34,000  Level FlightAware ADS-B
08:13AM 59.9836 12.7407 282° West 462 532 34,000  Level FlightAware ADS-B
08:14AM 60.0018 12.6180 287° West 460 529 34,000  Level FlightAware ADS-B
08:14AM 60.0209 12.4950 286° West 460 529 34,000  Level FlightAware ADS-B
08:15AM 60.0394 12.3712 286° West 463 533 34,000  Level FlightAware ADS-B
08:15AM 60.0570 12.2508 286° West 463 533 34,000  Level FlightAware ADS-B
08:16AM 60.0757 12.1210 286° West 464 534 34,000  Level FlightAware ADS-B
08:17AM 60.0938 11.9945 286° West 464 534 34,000  Level FlightAware ADS-B
08:17AM 60.1203 11.8081 285° West 462 532 34,000  Level FlightAware ADS-B
08:20AM 60.1902 11.2908 285° West  Level Estimated
08:21AM 60.2207 11.0602 285° West  Level Estimated
08:22AM 60.2507 10.8292 285° West  Level Estimated
08:23AM 60.2803 10.5977 285° West  Level Estimated
08:24AM 60.3096 10.3658 284° West  Level Estimated
08:25AM 60.3384 10.1335 284° West  Level Estimated
08:26AM 60.3668 9.9008 284° West  Level Estimated
08:27AM 60.3948 9.6677 284° West  Level Estimated
08:28AM 60.4224 9.4342 284° West  Level Estimated
08:29AM 60.4496 9.2003 283° West  Level Estimated
08:30AM 60.4764 8.9660 283° West  Level Estimated
08:31AM 60.5028 8.7313 283° West  Level Estimated
08:32AM 60.5287 8.4963 283° West  Level Estimated
08:33AM 60.5543 8.2609 283° West  Level Estimated
08:34AM 60.5794 8.0251 282° West  Level Estimated
08:35AM 60.6041 7.7889 282° West  Level Estimated
08:36AM 60.6284 7.5524 282° West  Level Estimated
08:37AM 60.6523 7.3155 282° West  Level Estimated
08:38AM 60.6758 7.0783 282° West  Level Estimated
08:39AM 60.6988 6.8408 281° West  Level Estimated
08:40AM 60.7214 6.6028 281° West  Level Estimated
08:41AM 60.7436 6.3646 281° West  Level Estimated
08:42AM 60.7654 6.1261 281° West  Level Estimated
08:43AM 60.7867 5.8872 280° West  Level Estimated
08:44AM 60.8077 5.6480 280° West  Level Estimated
08:45AM 60.8282 5.4085 280° West  Level Estimated
08:46AM 60.8482 5.1687 280° West  Level Estimated
08:47AM 60.8679 4.9286 280° West  Level Estimated
08:48AM 60.8871 4.6882 279° West  Level Estimated
08:49AM 60.9059 4.4475 279° West  Level Estimated
08:50AM 60.9242 4.2065 279° West  Level Estimated
08:51AM 60.9422 3.9653 279° West  Level Estimated
08:52AM 60.9597 3.7238 279° West  Level Estimated
08:53AM 60.9767 3.4820 278° West  Level Estimated
08:54AM 60.9934 3.2400 278° West  Level Estimated
08:55AM 61.0095 2.9977 278° West  Level Estimated
08:56AM 61.0253 2.7552 278° West  Level Estimated
08:57AM 61.0406 2.5124 278° West  Level Estimated
08:58AM 61.0555 2.2694 277° West  Level Estimated
08:59AM 61.0700 2.0262 277° West  Level Estimated
09:00AM 61.0840 1.7828 277° West  Level Estimated
09:01AM 61.0976 1.5391 277° West  Level Estimated
09:02AM 61.1107 1.2953 276° West  Level Estimated
09:03AM 61.1234 1.0512 276° West  Level Estimated
09:04AM 61.1357 0.8070 276° West  Level Estimated
09:05AM 61.1475 0.5626 276° West  Level Estimated
09:06AM 61.1589 0.3179 276° West  Level Estimated
09:07AM 61.1698 0.0732 275° West  Level Estimated
09:08AM 61.1803 -0.1718 275° West  Level Estimated
09:09AM 61.1903 -0.4169 275° West  Level Estimated
09:10AM 61.2000 -0.6622 275° West  Level Estimated
09:11AM 61.2091 -0.9076 275° West  Level Estimated
09:12AM 61.2178 -1.1531 274° West  Level Estimated
09:13AM 61.2261 -1.3988 274° West  Level Estimated
09:14AM 61.2340 -1.6446 274° West  Level Estimated
09:15AM 61.2413 -1.8905 274° West  Level Estimated
09:16AM 61.2483 -2.1366 273° West  Level Estimated
09:17AM 61.2548 -2.3827 273° West  Level Estimated
09:18AM 61.2608 -2.6290 273° West  Level Estimated
09:19AM 61.2664 -2.8753 273° West  Level Estimated
09:20AM 61.2716 -3.1217 273° West  Level Estimated
09:21AM 61.2763 -3.3682 272° West  Level Estimated
09:22AM 61.2806 -3.6148 272° West  Level Estimated
09:23AM 61.2844 -3.8614 272° West  Level Estimated
09:24AM 61.2877 -4.1081 272° West  Level Estimated
09:25AM 61.2907 -4.3548 272° West  Level Estimated
09:26AM 61.2931 -4.6016 271° West  Level Estimated
09:27AM 61.2952 -4.8484 271° West  Level Estimated
09:28AM 61.2967 -5.0953 271° West  Level Estimated
09:29AM 61.2979 -5.3421 271° West  Level Estimated
09:30AM 61.2985 -5.5890 270° West  Level Estimated
09:31AM 61.2988 -5.8359 270° West  Level Estimated
09:32AM 61.2986 -6.0827 270° West  Level Estimated
09:33AM 61.2979 -6.3296 270° West  Level Estimated
09:34AM 61.2968 -6.5765 270° West  Level Estimated
09:35AM 61.2952 -6.8233 269° West  Level Estimated
09:36AM 61.2932 -7.0701 269° West  Level Estimated
09:37AM 61.2908 -7.3169 269° West  Level Estimated
09:38AM 61.2879 -7.5637 269° West  Level Estimated
09:39AM 61.2845 -7.8103 268° West  Level Estimated
09:40AM 61.2807 -8.0570 268° West  Level Estimated
09:41AM 61.2765 -8.3035 268° West  Level Estimated
09:42AM 61.2718 -8.5500 268° West  Level Estimated
09:43AM 61.2666 -8.7965 268° West  Level Estimated
09:44AM 61.2611 -9.0428 267° West  Level Estimated
09:45AM 61.2550 -9.2891 267° West  Level Estimated
09:46AM 61.2485 -9.5352 267° West  Level Estimated
09:47AM 61.2416 -9.7812 267° West  Level Estimated
09:48AM 61.2342 -10.0272 267° West  Level Estimated
09:49AM 61.2264 -10.2730 266° West  Level Estimated
09:50AM 61.2182 -10.5187 266° West  Level Estimated
09:51AM 61.2095 -10.7642 266° West  Level Estimated
09:52AM 61.2003 -11.0096 266° West  Level Estimated
09:53AM 61.1907 -11.2549 265° West  Level Estimated
09:54AM 61.1807 -11.5000 265° West  Level Estimated
09:55AM 61.1702 -11.7450 265° West  Level Estimated
09:56AM 61.1593 -11.9898 265° West  Level Estimated
09:57AM 61.1479 -12.2344 265° West  Level Estimated
09:58AM 61.1361 -12.4788 264° West  Level Estimated
09:59AM 61.1239 -12.7231 264° West  Level Estimated
10:00AM 61.1112 -12.9671 264° West  Level Estimated
10:01AM 61.0981 -13.2110 264° West  Level Estimated
10:02AM 61.0845 -13.4546 264° West  Level Estimated
10:03AM 61.0705 -13.6981 263° West  Level Estimated
10:04AM 61.0561 -13.9413 263° West  Level Estimated
10:05AM 61.0412 -14.1843 263° West  Level Estimated
10:06AM 61.0259 -14.4271 263° West  Level Estimated
10:07AM 61.0102 -14.6696 262° West  Level Estimated
10:08AM 60.9940 -14.9119 262° West  Level Estimated
10:09AM 60.9774 -15.1539 262° West  Level Estimated
10:10AM 60.9603 -15.3957 262° West  Level Estimated
10:11AM 60.9428 -15.6372 262° West  Level Estimated
10:12AM 60.9249 -15.8785 261° West  Level Estimated
10:13AM 60.9066 -16.1195 261° West  Level Estimated
10:14AM 60.8878 -16.3602 261° West  Level Estimated
10:15AM 60.8686 -16.6006 261° West  Level Estimated
10:16AM 60.8490 -16.8407 261° West  Level Estimated
10:17AM 60.8289 -17.0805 260° West  Level Estimated
10:18AM 60.8084 -17.3200 260° West  Level Estimated
10:19AM 60.7875 -17.5592 260° West  Level Estimated
10:20AM 60.7662 -17.7981 260° West  Level Estimated
10:21AM 60.7444 -18.0367 260° West  Level Estimated
10:22AM 60.7223 -18.2749 259° West  Level Estimated
10:23AM 60.6997 -18.5128 259° West  Level Estimated
10:24AM 60.6766 -18.7504 259° West  Level Estimated
10:25AM 60.6532 -18.9876 259° West  Level Estimated
10:26AM 60.6293 -19.2245 258° West  Level Estimated
10:27AM 60.6050 -19.4611 258° West  Level Estimated
10:28AM 60.5803 -19.6972 258° West  Level Estimated
10:29AM 60.5552 -19.9330 258° West  Level Estimated
10:30AM 60.5297 -20.1685 258° West  Level Estimated
10:31AM 60.5038 -20.4035 257° West  Level Estimated
10:32AM 60.4774 -20.6382 257° West  Level Estimated
10:33AM 60.4506 -20.8725 257° West  Level Estimated
10:34AM 60.4235 -21.1064 257° West  Level Estimated
10:35AM 60.3959 -21.3400 257° West  Level Estimated
10:36AM 60.3679 -21.5731 256° West  Level Estimated
10:37AM 60.3395 -21.8058 256° West  Level Estimated
10:38AM 60.3107 -22.0381 256° West  Level Estimated
10:39AM 60.2815 -22.2700 256° West  Level Estimated
10:40AM 60.2518 -22.5015 256° West  Level Estimated
10:41AM 60.2218 -22.7325 255° West  Level Estimated
10:42AM 60.1914 -22.9632 255° West  Level Estimated
10:43AM 60.1606 -23.1934 255° West  Level Estimated
10:44AM 60.1294 -23.4231 255° West  Level Estimated
10:45AM 60.0978 -23.6525 255° West  Level Estimated
10:46AM 60.0658 -23.8814 254° West  Level Estimated
10:47AM 60.0333 -24.1098 254° West  Level Estimated
10:48AM 60.0005 -24.3378 254° West  Level Estimated
10:49AM 59.9674 -24.5653 254° West  Level Estimated
10:50AM 59.9338 -24.7924 254° West  Level Estimated
10:51AM 59.8998 -25.0190 253° West  Level Estimated
10:52AM 59.8655 -25.2452 253° West  Level Estimated
10:53AM 59.8307 -25.4709 253° West  Level Estimated
10:54AM 59.7956 -25.6961 253° West  Level Estimated
10:55AM 59.7601 -25.9208 253° West  Level Estimated
10:56AM 59.7242 -26.1451 252° West  Level Estimated
10:57AM 59.6879 -26.3689 252° West  Level Estimated
10:58AM 59.6512 -26.5921 252° West  Level Estimated
10:59AM 59.6142 -26.8149 252° West  Level Estimated
11:00AM 59.5768 -27.0372 252° West  Level Estimated
11:01AM 59.5390 -27.2590 252° West  Level Estimated
11:02AM 59.5008 -27.4803 251° West  Level Estimated
11:03AM 59.4623 -27.7011 251° West  Level Estimated
11:04AM 59.4234 -27.9214 251° West  Level Estimated
11:05AM 59.3841 -28.1412 251° West  Level Estimated
11:06AM 59.3445 -28.3605 251° West  Level Estimated
11:07AM 59.3044 -28.5793 250° West  Level Estimated
11:08AM 59.2640 -28.7975 250° West  Level Estimated
11:09AM 59.2233 -29.0152 250° West  Level Estimated
11:10AM 59.1822 -29.2324 250° West  Level Estimated
11:11AM 59.1407 -29.4491 250° West  Level Estimated
11:12AM 59.0989 -29.6653 249° West  Level Estimated
11:13AM 59.0567 -29.8809 249° West  Level Estimated
11:14AM 59.0142 -30.0960 249° West  Level Estimated
11:15AM 58.9713 -30.3106 249° West  Level Estimated
11:16AM 58.9280 -30.5246 249° West  Level Estimated
11:17AM 58.8844 -30.7381 249° West  Level Estimated
11:18AM 58.8405 -30.9510 248° West  Level Estimated
11:19AM 58.7961 -31.1634 248° West  Level Estimated
11:20AM 58.7515 -31.3753 248° West  Level Estimated
11:21AM 58.7065 -31.5866 248° West  Level Estimated
11:22AM 58.6611 -31.7974 248° West  Level Estimated
11:23AM 58.6155 -32.0076 247° West  Level Estimated
11:24AM 58.5694 -32.2173 247° West  Level Estimated
11:25AM 58.5230 -32.4264 247° West  Level Estimated
11:26AM 58.4763 -32.6350 247° West  Level Estimated
11:27AM 58.4293 -32.8430 247° West  Level Estimated
11:28AM 58.3819 -33.0504 247° West  Level Estimated
11:29AM 58.3342 -33.2573 246° West  Level Estimated
11:30AM 58.2861 -33.4636 246° West  Level Estimated
11:31AM 58.2377 -33.6694 246° West  Level Estimated
11:32AM 58.1890 -33.8746 246° West  Level Estimated
11:33AM 58.1400 -34.0793 246° West  Level Estimated
11:34AM 58.0906 -34.2833 245° Southwest  Level Estimated
11:35AM 58.0409 -34.4869 245° Southwest  Level Estimated
11:36AM 57.9909 -34.6898 245° Southwest  Level Estimated
11:37AM 57.9406 -34.8922 245° Southwest  Level Estimated
11:38AM 57.8899 -35.0940 245° Southwest  Level Estimated
11:39AM 57.8389 -35.2952 245° Southwest  Level Estimated
11:40AM 57.7876 -35.4959 244° Southwest  Level Estimated
11:41AM 57.7360 -35.6960 244° Southwest  Level Estimated
11:42AM 57.6841 -35.8955 244° Southwest  Level Estimated
11:43AM 57.6318 -36.0945 244° Southwest  Level Estimated
11:44AM 57.5793 -36.2929 244° Southwest  Level Estimated
11:45AM 57.5264 -36.4907 244° Southwest  Level Estimated
11:46AM 57.4733 -36.6879 243° Southwest  Level Estimated
11:47AM 57.4198 -36.8846 243° Southwest  Level Estimated
11:48AM 57.3660 -37.0806 243° Southwest  Level Estimated
11:49AM 57.3119 -37.2761 243° Southwest  Level Estimated
11:50AM 57.2575 -37.4711 243° Southwest  Level Estimated
11:51AM 57.2028 -37.6654 243° Southwest  Level Estimated
11:52AM 57.1478 -37.8592 242° Southwest  Level Estimated
11:53AM 57.0925 -38.0524 242° Southwest  Level Estimated
11:54AM 57.0370 -38.2450 242° Southwest  Level Estimated
11:55AM 56.9811 -38.4371 242° Southwest  Level Estimated
11:56AM 56.9249 -38.6286 242° Southwest  Level Estimated
11:57AM 56.8685 -38.8195 242° Southwest  Level Estimated
11:58AM 56.8117 -39.0098 241° Southwest  Level Estimated
11:59AM 56.7547 -39.1995 241° Southwest  Level Estimated
12:00PM 56.6973 -39.3887 241° Southwest  Level Estimated
12:01PM 56.6397 -39.5773 241° Southwest  Level Estimated
12:02PM 56.5818 -39.7653 241° Southwest  Level Estimated
12:03PM 56.5236 -39.9527 241° Southwest  Level Estimated
12:04PM 56.4652 -40.1395 241° Southwest  Level Estimated
12:05PM 56.4064 -40.3258 240° Southwest  Level Estimated
12:06PM 56.3474 -40.5115 240° Southwest  Level Estimated
12:07PM 56.2881 -40.6967 240° Southwest  Level Estimated
12:08PM 56.2285 -40.8812 240° Southwest  Level Estimated
12:09PM 56.1687 -41.0652 240° Southwest  Level Estimated
12:10PM 56.1086 -41.2486 240° Southwest  Level Estimated
12:11PM 56.0482 -41.4314 239° Southwest  Level Estimated
12:12PM 55.9875 -41.6137 239° Southwest  Level Estimated
12:12PM 63.1500 -54.8667 239° Southwest 320 368 36,000  Level Gander Center
12:13PM 55.9266 -41.7954 239° Southwest  Level Estimated
12:13PM 63.1000 -55.0833 243° Southwest 430 495 36,000  Level Gander Center
12:14PM 55.8654 -41.9765 239° Southwest  Level Estimated
12:15PM 55.8039 -42.1571 239° Southwest  Level Estimated
12:15PM 63.0000 -55.6667 250° West 450 518 36,000  Level Gander Center
12:16PM 55.7413 -42.3395 239° Southwest  Level Estimated
12:16PM 62.9167 -55.8500 225° Southwest 460 529 36,000  Level Gander Center
12:17PM 55.6785 -42.5214 239° Southwest  Level Estimated
12:17PM 62.8833 -56.0833 253° West 460 529 36,000  Level Gander Center
12:18PM 62.7833 -56.3167 227° Southwest 460 529 36,000  Level Gander Center
12:19PM 62.7500 -56.5333 252° West 450 518 36,000  Level Gander Center
12:20PM 62.6500 -56.7667 227° Southwest 450 518 36,000  Level Gander Center
12:21PM 62.6000 -57.0000 245° Southwest 460 529 36,000  Level Gander Center
12:22PM 62.5333 -57.2167 236° Southwest 440 506 36,000  Level Gander Center
12:23PM 62.4500 -57.4500 232° Southwest 460 529 36,000  Level Gander Center
12:24PM 62.3833 -57.6667 236° Southwest 460 529 36,000  Level Gander Center
12:25PM 62.3167 -57.9000 238° Southwest 450 518 36,000  Level Gander Center
12:26PM 62.2333 -58.1167 231° Southwest 460 529 36,000  Level Gander Center
12:28PM 62.1000 -58.5500 235° Southwest 460 529 36,000  Level Gander Center
12:29PM 62.0333 -58.7667 237° Southwest 450 518 36,000  Level Gander Center
12:30PM 61.9667 -58.9833 237° Southwest 460 529 36,000  Level Gander Center
12:31PM 61.9000 -59.2000 237° Southwest 450 518 36,000  Level Gander Center
12:32PM 61.8167 -59.4167 231° Southwest 450 518 36,000  Level Gander Center
12:33PM 61.7333 -59.6667 235° Southwest 440 506 36,000  Level Gander Center
12:34PM 61.6500 -59.8833 231° Southwest 450 518 36,000  Level Gander Center
12:35PM 61.5833 -60.1000 237° Southwest 440 506 36,000  Level Gander Center
12:36PM 61.5167 -60.3000 235° Southwest 430 495 36,000  Level Gander Center
12:37PM 61.4500 -60.5167 237° Southwest 450 518 36,000  Level Gander Center
12:38PM 61.3667 -60.7333 231° Southwest 450 518 36,000  Level Gander Center
12:39PM 61.3000 -60.9333 235° Southwest 450 518 36,000  Level Gander Center
12:40PM 61.2333 -61.1167 233° Southwest 440 506 36,000  Level Gander Center
12:41PM 61.1500 -61.3167 229° Southwest 440 506 36,000  Level Gander Center
12:42PM 61.0833 -61.5167 235° Southwest 440 506 36,000  Level Gander Center
12:43PM 61.0000 -61.7333 232° Southwest 450 518 36,000  Level Gander Center
12:44PM 60.9333 -61.9333 236° Southwest 450 518 36,000  Level Gander Center
12:45PM 60.8500 -62.1333 230° Southwest 450 518 36,000  Level Gander Center
12:46PM 60.7833 -62.3333 236° Southwest 450 518 36,000  Level Gander Center
12:47PM 60.6833 -62.5333 224° Southwest 450 518 36,000 -180 Level Gander Center
12:48PM 60.6000 -62.7000 225° Southwest 450 518 35,700 -420 Descending Gander Center
12:49PM 60.5000 -62.8667 219° Southwest 450 518 35,200 -660 Descending Gander Center
12:50PM 60.4000 -63.0333 219° Southwest 440 506 34,400 -600 Descending Gander Center
12:51PM 60.3167 -63.2000 225° Southwest 450 518 34,000 -240 Descending Gander Center
12:52PM 60.2167 -63.3500 217° Southwest 450 518 34,000  Level Gander Center
12:53PM 60.1167 -63.5167 220° Southwest 450 518 34,000  Level Gander Center
12:54PM 60.0333 -63.6833 225° Southwest 450 518 34,000  Level Gander Center
12:55PM 59.9500 -63.8333 222° Southwest 450 518 34,000  Level Gander Center
12:56PM 59.8333 -64.0000 216° Southwest 440 506 34,000  Level Gander Center
12:57PM 59.7500 -64.1500 222° Southwest 450 518 34,000  Level Gander Center
12:58PM 59.6667 -64.3167 225° Southwest 440 506 34,000  Level Gander Center
12:59PM 59.5667 -64.4667 217° Southwest 440 506 34,000  Level Gander Center
01:00PM 59.4833 -64.6333 225° Southwest 440 506 34,000  Level Gander Center
01:01PM 59.3667 -64.7833 213° Southwest 440 506 34,000  Level Gander Center
01:02PM 59.2833 -64.9333 223° Southwest 440 506 34,000  Level Gander Center
01:03PM 59.2000 -65.0833 223° Southwest 440 506 34,000  Level Gander Center
01:04PM 59.1000 -65.2333 218° Southwest 440 506 34,000  Level Gander Center
01:05PM 59.0000 -65.3833 218° Southwest 440 506 34,000  Level Gander Center
01:06PM 58.9000 -65.5333 218° Southwest 440 506 34,000  Level Gander Center
01:07PM 58.8167 -65.6833 223° Southwest 440 506 34,000  Level Gander Center
01:08PM 58.7167 -65.8000 211° Southwest 440 506 34,000  Level Gander Center
01:09PM 58.6167 -65.9500 218° Southwest 440 506 34,000  Level Gander Center
01:10PM 58.5167 -66.1000 218° Southwest 430 495 34,000  Level Gander Center
01:11PM 58.4333 -66.2167 216° Southwest 440 506 34,000  Level Gander Center
01:12PM 58.3167 -66.3667 214° Southwest 440 506 34,000  Level Gander Center
01:13PM 58.2333 -66.5167 223° Southwest 430 495 34,000  Level Gander Center
01:14PM 58.1333 -66.6500 215° Southwest 430 495 34,000  Level Gander Center
01:15PM 58.0333 -66.8000 218° Southwest 430 495 34,000  Level Gander Center
01:16PM 57.9333 -66.9000 208° Southwest 440 506 34,000  Level Gander Center
01:17PM 57.8500 -67.0500 224° Southwest 440 506 34,000  Level Gander Center
01:18PM 57.7333 -67.1833 211° Southwest 440 506 34,000  Level Gander Center
01:19PM 57.6500 -67.3333 224° Southwest 440 506 34,000  Level Gander Center
01:20PM 57.5667 -67.4500 217° Southwest 430 495 34,000  Level Gander Center
01:21PM 57.4500 -67.5833 212° Southwest 430 495 34,000  Level Gander Center
01:22PM 57.3667 -67.7167 221° Southwest 430 495 34,000  Level Gander Center
01:23PM 57.2500 -67.8333 208° Southwest 430 495 34,000  Level Gander Center
01:24PM 57.1667 -67.9667 221° Southwest 430 495 34,000  Level Gander Center
01:25PM 57.0667 -68.1000 216° Southwest 430 495 34,000  Level Gander Center
01:26PM 56.9667 -68.2333 216° Southwest 430 495 34,000  Level Gander Center
01:27PM 56.8833 -68.3500 217° Southwest 430 495 34,000  Level Gander Center
01:28PM 56.7667 -68.4833 212° Southwest 430 495 34,000  Level Gander Center
01:29PM 56.6833 -68.5833 213° Southwest 430 495 34,000  Level Gander Center
01:30PM 56.5667 -68.7500 218° Southwest 430 495 34,000  Level Gander Center
01:31PM 56.4833 -68.8500 214° Southwest 430 495 34,000  Level Gander Center
01:32PM 56.3833 -68.9833 216° Southwest 430 495 34,000  Level Gander Center
01:33PM 56.2833 -69.0833 209° Southwest 430 495 34,000  Level Gander Center
01:34PM 56.1833 -69.2167 217° Southwest 430 495 34,000  Level Gander Center
01:35PM 56.1000 -69.3500 222° Southwest 430 495 34,000  Level Gander Center
01:36PM 55.9833 -69.4500 206° Southwest 430 495 34,000  Level Gander Center
01:37PM 55.9000 -69.5667 218° Southwest 430 495 34,000  Level Gander Center
01:38PM 55.7833 -69.7000 213° Southwest 430 495 34,000  Level Gander Center
01:39PM 55.7000 -69.8000 214° Southwest 430 495 34,000  Level Gander Center
01:40PM 55.6000 -69.9333 217° Southwest 420 483 34,000  Level Gander Center
01:41PM 55.5000 -70.0333 210° Southwest 420 483 34,000  Level Gander Center
01:42PM 55.4000 -70.1500 214° Southwest 420 483 34,000  Level Gander Center
01:43PM 55.3167 -70.2833 222° Southwest 420 483 34,000  Level Gander Center
01:44PM 55.2000 -70.3667 202° Southwest 420 483 34,000  Level Gander Center
01:45PM 55.1167 -70.5000 222° Southwest 420 483 34,000  Level Gander Center
01:46PM 55.0167 -70.6000 210° Southwest 420 483 34,000  Level Gander Center
01:47PM 54.9167 -70.7167 214° Southwest 420 483 34,000  Level Gander Center
01:48PM 54.8167 -70.8500 218° Southwest 420 483 34,000  Level Gander Center
01:49PM 54.7167 -70.9333 206° Southwest 420 483 34,000  Level Gander Center
01:50PM 54.6333 -71.0667 223° Southwest 420 483 34,000  Level Gander Center
01:51PM 54.5167 -71.1500 203° Southwest 420 483 34,000  Level Gander Center
01:52PM 54.4333 -71.2667 219° Southwest 420 483 34,000  Level Gander Center
01:53PM 54.3333 -71.4000 218° Southwest 420 483 34,000  Level Gander Center
01:54PM 54.2333 -71.4833 206° Southwest 420 483 34,000  Level Gander Center
01:55PM 54.1333 -71.6000 214° Southwest 420 483 34,000  Level Gander Center
01:56PM 54.0333 -71.7000 210° Southwest 420 483 34,000  Level Gander Center
01:57PM 53.9500 -71.8167 220° Southwest 420 483 34,000  Level Gander Center
01:58PM 53.8333 -71.9000 203° Southwest 420 483 34,000  Level Gander Center
01:59PM 53.7500 -72.0167 220° Southwest 420 483 34,000  Level Gander Center
02:00PM 53.6500 -72.1167 211° Southwest 420 483 34,000  Level Gander Center
02:01PM 53.5333 -72.2333 211° Southwest 420 483 34,000  Level Gander Center
02:02PM 53.4500 -72.3167 211° Southwest 420 483 34,000  Level Gander Center
02:03PM 53.3500 -72.4333 215° Southwest 420 483 34,000  Level Gander Center
02:04PM 53.2333 -72.5500 211° Southwest 420 483 34,000  Level Gander Center
02:05PM 53.1500 -72.6333 211° Southwest 420 483 34,000  Level Gander Center
02:06PM 53.0500 -72.7500 215° Southwest 420 483 34,000  Level Gander Center
02:07PM 52.9500 -72.8333 207° Southwest 420 483 34,000  Level Gander Center
02:08PM 52.8500 -72.9500 215° Southwest 420 483 34,000  Level Gander Center
02:09PM 52.7500 -73.0333 207° Southwest 420 483 34,000  Level Gander Center
02:10PM 52.6333 -73.1333 207° Southwest 420 483 34,000  Level Gander Center
02:11PM 52.5500 -73.2500 220° Southwest 420 483 34,000  Level Gander Center
02:12PM 52.4500 -73.3333 207° Southwest 420 483 34,000  Level Gander Center
02:13PM 52.3500 -73.4500 215° Southwest 420 483 34,000  Level Gander Center
02:14PM 52.2500 -73.5333 207° Southwest 420 483 34,000  Level Gander Center
02:15PM 52.1500 -73.6333 212° Southwest 420 483 34,000  Level Gander Center
02:16PM 52.0500 -73.7167 207° Southwest 420 483 34,000  Level Gander Center
02:17PM 51.9500 -73.8333 216° Southwest 420 483 34,000  Level Gander Center
02:18PM 51.8500 -73.9333 212° Southwest 420 483 34,000  Level Gander Center
02:19PM 51.7333 -74.0167 204° Southwest 420 483 34,000  Level Gander Center
02:20PM 51.6500 -74.1333 221° Southwest 420 483 34,000  Level Gander Center
02:21PM 51.5500 -74.2167 207° Southwest 420 483 34,000  Level Gander Center
02:22PM 51.4333 -74.3167 208° Southwest 420 483 34,000  Level Gander Center
02:23PM 51.3500 -74.4000 212° Southwest 420 483 34,000  Level Gander Center
02:24PM 51.2333 -74.4833 204° Southwest 410 472 34,000  Level Montreal Center
02:25PM 51.1333 -74.5667 208° Southwest 410 472 34,000  Level Montreal Center
02:26PM 51.0333 -74.6500 208° Southwest 410 472 34,000  Level Montreal Center
02:27PM 50.9333 -74.7667 216° Southwest 410 472 34,000  Level Montreal Center
02:28PM 50.8333 -74.8500 208° Southwest 410 472 34,000  Level Montreal Center
02:29PM 50.7333 -74.9333 208° Southwest 410 472 34,000  Level Montreal Center
02:30PM 50.6333 -75.0333 212° Southwest 410 472 34,000  Level Montreal Center
02:31PM 50.5333 -75.1167 208° Southwest 410 472 34,000  Level Montreal Center
02:32PM 50.4333 -75.2000 208° Southwest 410 472 34,000  Level Montreal Center
02:33PM 50.3333 -75.2833 208° Southwest 410 472 34,000  Level Montreal Center
02:34PM 50.2333 -75.3833 213° Southwest 410 472 34,000  Level Montreal Center
02:35PM 50.1500 -75.4667 213° Southwest 410 472 34,000  Level Montreal Center
02:36PM 50.0167 -75.5500 202° Southwest 410 472 34,000  Level Montreal Center
02:37PM 49.9333 -75.6500 218° Southwest 410 472 34,000  Level Montreal Center
02:38PM 49.8167 -75.7333 205° Southwest 410 472 34,000  Level Montreal Center
02:39PM 49.7333 -75.8167 213° Southwest 410 472 34,000  Level Montreal Center
02:40PM 49.6167 -75.9167 209° Southwest 410 472 34,000  Level Montreal Center
02:41PM 49.5333 -76.0000 213° Southwest 410 472 34,000  Level Montreal Center
02:42PM 49.4333 -76.0667 203° Southwest 410 472 34,000  Level Montreal Center
02:43PM 49.3333 -76.1667 213° Southwest 420 483 34,000  Level Montreal Center
02:44PM 49.2333 -76.2500 209° Southwest 420 483 34,000  Level Montreal Center
02:46PM 49.0167 -76.4333 209° Southwest 420 483 34,000  Level Montreal Center
02:47PM 48.9167 -76.5000 204° Southwest 420 483 34,000  Level Montreal Center
02:48PM 48.8167 -76.5833 209° Southwest 420 483 34,000  Level Montreal Center
02:49PM 48.7167 -76.6833 213° Southwest 420 483 34,000  Level Montreal Center
02:50PM 48.6167 -76.7500 204° Southwest 410 472 34,000  Level Montreal Center
02:51PM 48.5167 -76.8333 209° Southwest 410 472 34,000  Level Montreal Center
02:52PM 48.4000 -76.9333 210° Southwest 420 483 34,000  Level Montreal Center
02:53PM 48.3000 -77.0000 204° Southwest 420 483 34,000  Level Montreal Center
02:54PM 48.2000 -77.1000 214° Southwest 420 483 34,000  Level Montreal Center
02:55PM 48.1000 -77.1667 204° Southwest 420 483 34,000  Level Montreal Center
02:56PM 47.9833 -77.2667 210° Southwest 420 483 34,000  Level Montreal Center
02:57PM 47.8833 -77.3500 209° Southwest 420 483 34,000  Level Montreal Center
02:58PM 47.7833 -77.4167 204° Southwest 420 483 34,000  Level Montreal Center
02:59PM 47.6833 -77.5167 214° Southwest 420 483 34,000  Level Montreal Center
03:00PM 47.5833 -77.5833 204° Southwest 420 483 34,000  Level Montreal Center
03:01PM 47.4833 -77.6833 214° Southwest 420 483 34,000  Level Montreal Center
03:02PM 47.3667 -77.7500 201° Southwest 420 483 34,000  Level Montreal Center
03:03PM 47.2667 -77.8167 204° Southwest 420 483 34,000  Level Montreal Center
03:04PM 47.1667 -77.9167 214° Southwest 420 483 34,000  Level Montreal Center
03:05PM 47.0500 -77.9833 201° Southwest 420 483 34,000  Level Montreal Center
03:06PM 46.9500 -78.0833 214° Southwest 430 495 34,000  Level Montreal Center
03:07PM 46.8500 -78.1167 193° South 430 495 34,000  Level Toronto Center
03:13PM 46.2320 -78.6152 208° Southwest 436 502 34,000  Level FlightAware ADS-B (CYYZ)
03:14PM 46.1767 -78.6560 208° Southwest 438 504 34,000  Level FlightAware ADS-B (CYYZ)
03:14PM 46.1297 -78.6905 208° Southwest 439 505 34,000  Level FlightAware ADS-B (CYYZ)
03:15PM 46.0685 -78.7354 208° Southwest 440 506 34,000  Level FlightAware ADS-B (CYYZ)
03:15PM 46.0176 -78.7726 207° Southwest 440 506 34,000  Level FlightAware ADS-B (CYYZ)
03:16PM 45.9664 -78.8100 207° Southwest 440 506 34,000  Level FlightAware ADS-B (CYYZ)
03:16PM 45.9046 -78.8551 207° Southwest 439 505 34,000  Level FlightAware ADS-B (CYYZ)
03:17PM 45.8508 -78.8943 207° Southwest 440 506 34,000  Level FlightAware ADS-B (CYYZ)
03:17PM 45.7945 -78.9352 207° Southwest 441 507 34,000  Level FlightAware ADS-B (CYYZ)
03:18PM 45.7397 -78.9749 207° Southwest 443 510 34,000  Level FlightAware ADS-B (CYYZ)
03:18PM 45.6891 -79.0114 207° Southwest 445 512 34,000  Level FlightAware ADS-B (CYYZ)
03:19PM 45.6313 -79.0531 207° Southwest 446 513 34,000  Level FlightAware ADS-B (CYYZ)
03:19PM 45.5745 -79.0939 207° Southwest 446 513 34,000  Level FlightAware ADS-B (CYYZ)
03:20PM 45.5221 -79.1315 207° Southwest 447 514 34,000  Level FlightAware ADS-B (CYYZ)
03:20PM 45.4640 -79.1731 207° Southwest 448 516 34,000  Level FlightAware ADS-B (CYYZ)
03:21PM 45.4136 -79.2092 207° Southwest 448 516 34,000  Level FlightAware ADS-B (CYYZ)
03:21PM 45.3579 -79.2489 207° Southwest 447 514 34,000  Level FlightAware ADS-B (CYYZ)
03:22PM 45.2991 -79.2908 207° Southwest 448 516 34,000  Level FlightAware ADS-B (CYYZ)
03:22PM 45.2422 -79.3312 207° Southwest 448 516 34,000  Level FlightAware ADS-B (CYYZ)
03:23PM 45.1871 -79.3702 207° Southwest 449 517 34,000  Level FlightAware ADS-B (CYYZ)
03:23PM 45.1362 -79.4062 207° Southwest 451 519 34,000  Level FlightAware ADS-B (CYYZ)
03:24PM 45.0740 -79.4501 207° Southwest 452 520 34,000  Level FlightAware ADS-B (CYYZ)
03:24PM 45.0389 -79.4748 207° Southwest 452 520 34,000  Level FlightAware ADS-B (CYYZ)
03:25PM 44.9641 -79.5273 207° Southwest 452 520 34,000  Level FlightAware ADS-B (CYYZ)
03:25PM 44.9137 -79.5625 207° Southwest 452 520 34,000  Level FlightAware ADS-B (CYYZ)
03:26PM 44.8618 -79.5989 207° Southwest 454 522 34,000  Level FlightAware ADS-B (CYYZ)
03:26PM 44.7948 -79.6456 207° Southwest 455 524 34,000  Level FlightAware ADS-B (CYYZ)
03:27PM 44.7360 -79.6864 207° Southwest 455 524 34,000  Level FlightAware ADS-B (CYYZ)
03:27PM 44.6797 -79.7256 207° Southwest 455 524 34,000  Level FlightAware ADS-B (CYYZ)
03:28PM 44.6259 -79.7629 207° Southwest 454 522 34,000  Level FlightAware ADS-B (CYYZ)
03:28PM 44.5580 -79.8136 211° Southwest 454 522 34,000  Level FlightAware ADS-B (CYYZ)
03:29PM 44.4885 -79.8766 214° Southwest 454 522 34,000  Level FlightAware ADS-B (CYYZ)
03:29PM 44.4364 -79.9243 213° Southwest 454 522 34,000  Level FlightAware ADS-B (CYYZ)
03:30PM 44.3341 -80.0046 209° Southwest 458 527 34,000  Level FlightAware ADS-B (CYYZ)
03:31PM 44.2789 -80.0477 210° Southwest 458 527 34,000  Level FlightAware ADS-B (CYYZ)
03:31PM 44.2229 -80.0917 210° Southwest 459 528 34,000  Level FlightAware ADS-B (CYYZ)
03:32PM 44.1673 -80.1355 210° Southwest 459 528 34,000  Level FlightAware ADS-B (CYYZ)
03:32PM 44.1125 -80.1786 210° Southwest 459 528 34,000  Level FlightAware ADS-B (CYYZ)
03:33PM 44.0572 -80.2219 210° Southwest 460 529 34,000  Level FlightAware ADS-B (CYYZ)
03:33PM 44.0009 -80.2659 210° Southwest 461 531 34,000  Level FlightAware ADS-B (CYYZ)
03:34PM 43.9471 -80.3078 210° Southwest 460 529 34,000  Level FlightAware ADS-B (CYYZ)
03:34PM 43.8945 -80.3488 210° Southwest 458 527 34,000  Level FlightAware ADS-B (CYYZ)
03:35PM 43.8511 -80.3825 209° Southwest 459 528 34,000  Level FlightAware ADS-B (CYKF)
03:35PM 43.8404 -80.3908 210° Southwest 458 527 34,000  Level FlightAware ADS-B (CYYZ)
03:35PM 43.7853 -80.4335 210° Southwest 458 527 34,000  Level FlightAware ADS-B (CYYZ)
03:36PM 43.7268 -80.4789 210° Southwest 459 528 34,000  Level FlightAware ADS-B (CYYZ)
03:36PM 43.6778 -80.5167 210° Southwest 459 528 34,000  Level FlightAware ADS-B (CYYZ)
03:37PM 43.6134 -80.5664 210° Southwest 459 528 34,000  Level FlightAware ADS-B (CYYZ)
03:37PM 43.5583 -80.6088 210° Southwest 461 531 34,000  Level FlightAware ADS-B (CYYZ)
03:38PM 43.5304 -80.6302 209° Southwest 463 533 34,000  Level FlightAware ADS-B (CYKF)
03:38PM 43.4447 -80.6959 210° Southwest 462 532 34,000  Level FlightAware ADS-B (CYYZ)
03:39PM 43.3881 -80.7391 210° Southwest 463 533 34,000  Level FlightAware ADS-B (CYYZ)
03:39PM 43.3322 -80.7816 210° Southwest 463 533 34,000  Level FlightAware ADS-B (CYYZ)
03:40PM 43.2764 -80.8241 210° Southwest 463 533 34,000  Level FlightAware ADS-B (CYYZ)
03:40PM 43.2208 -80.8663 209° Southwest 464 534 34,000  Level FlightAware ADS-B (CYYZ)
03:41PM 43.1636 -80.9097 209° Southwest 464 534 34,000  Level FlightAware ADS-B (CYKF)
03:41PM 43.1071 -80.9524 209° Southwest 464 534 34,000  Level FlightAware ADS-B (CYYZ)
03:42PM 43.0509 -80.9947 209° Southwest 465 535 34,000  Level FlightAware ADS-B (CYYZ)
03:42PM 42.9939 -81.0377 209° Southwest 465 535 34,000  Level FlightAware ADS-B (CYYZ)
03:43PM 42.9380 -81.0796 209° Southwest 464 534 34,000  Level FlightAware ADS-B (CYYZ)
03:43PM 42.8810 -81.1223 209° Southwest 465 535 34,000  Level FlightAware ADS-B (CYYZ)
03:44PM 42.8243 -81.1648 209° Southwest 466 536 34,000  Level FlightAware ADS-B (CYYZ)
03:44PM 42.7673 -81.2072 209° Southwest 468 539 34,000  Level FlightAware ADS-B (CYYZ)
03:45PM 42.7125 -81.2481 209° Southwest 469 540 34,000  Level FlightAware ADS-B (CYYZ)
03:45PM 42.7138 -81.2471 209° Southwest 469 540 34,000  Level FlightAware ADS-B (CYKF)
03:45PM 42.6558 -81.2902 209° Southwest 468 539 34,000  Level FlightAware ADS-B (CYYZ)
03:46PM 42.5971 -81.3338 209° Southwest 468 539 34,000  Level FlightAware ADS-B (CYYZ)
03:46PM 42.5402 -81.3759 209° Southwest 470 541 34,000  Level FlightAware ADS-B (CYYZ)
03:47PM 42.4893 -81.4135 209° Southwest 472 543 34,000  Level FlightAware ADS-B (CYKF)
03:47PM 42.4877 -81.4147 209° Southwest 471 542 34,000  Level FlightAware ADS-B (CYYZ)
03:47PM 42.4250 -81.4608 209° Southwest 473 544 34,000  Level FlightAware ADS-B (CYYZ)
03:48PM 42.3689 -81.5021 209° Southwest 472 543 34,000  Level FlightAware ADS-B (CYYZ)
03:48PM 42.3150 -81.5417 209° Southwest 471 542 34,000  Level FlightAware ADS-B (CYYZ)
03:49PM 42.2533 -81.5869 209° Southwest 471 542 34,000  Level FlightAware ADS-B (CYYZ)
03:49PM 42.1978 -81.6274 209° Southwest 469 540 34,000  Level FlightAware ADS-B (CYYZ)
03:50PM 42.1383 -81.6708 209° Southwest 469 540 34,000  Level FlightAware ADS-B (CYYZ)
03:50PM 42.0796 -81.7136 209° Southwest 472 543 34,000  Level FlightAware ADS-B (CYYZ)
03:51PM 42.0259 -81.7525 209° Southwest 472 543 34,000  Level FlightAware ADS-B (CYYZ)
03:51PM 41.9650 -81.7967 209° Southwest 475 547 34,000  Level FlightAware ADS-B (CYYZ)
03:52PM 41.8963 -81.8433 204° Southwest 478 550 34,000  Level FlightAware ADS-B (CYYZ)
03:52PM 41.8438 -81.8737 205° Southwest 478 550 34,000  Level FlightAware ADS-B (CYYZ)
03:53PM 41.7777 -81.9140 205° Southwest 477 549 34,000  Level FlightAware ADS-B (CYYZ)
03:53PM 41.7154 -81.9514 205° Southwest 478 550 34,000  Level FlightAware ADS-B (CYYZ)
03:53PM 41.7046 -81.9578 205° Southwest 478 550 34,000  Level FlightAware ADS-B (CYYZ)
03:54PM 41.5990 -82.0203 204° Southwest 479 551 34,000  Level FlightAware ADS-B (CYYZ)
03:55PM 41.5329 -82.0593 204° Southwest 477 549 34,000  Level FlightAware ADS-B (CYYZ)
03:55PM 41.4816 -82.0895 204° Southwest 476 548 34,000  Level FlightAware ADS-B (CYYZ)
03:56PM 41.4275 -82.1206 204° Southwest 477 549 34,000  Level Cleveland Center
03:57PM 41.2817 -82.1867 199° South 477 549 34,000  Level Cleveland Center
03:58PM 41.1542 -82.2344 196° South 477 549 34,000  Level Cleveland Center
03:59PM 41.0242 -82.2825 196° South 478 550 34,000  Level Cleveland Center
04:00PM 40.8936 -82.3286 195° South 480 552 34,000  Level Cleveland Center
04:08PM 39.8470 -82.6091 183° South 490 564 34,000  Level FlightAware ADS-B (KPMH)
04:08PM 39.7748 -82.6140 183° South 491 565 34,000  Level FlightAware ADS-B (KPMH)
04:09PM 39.6968 -82.6193 183° South 490 564 34,000  Level FlightAware ADS-B (KPMH)
04:10PM 39.6104 -82.6251 183° South 490 564 34,000  Level FlightAware ADS-B (KPMH)
04:10PM 39.5089 -82.6319 183° South 491 565 34,000  Level FlightAware ADS-B (KPMH)
04:11PM 39.4379 -82.6365 183° South 492 566 34,000  Level FlightAware ADS-B (KPMH)
04:11PM 39.3706 -82.6411 183° South 492 566 34,000  Level FlightAware ADS-B (KPMH)
04:12PM 39.2951 -82.6462 183° South 492 566 34,000  Level FlightAware ADS-B (KPMH)
04:12PM 39.2166 -82.6514 183° South 491 565 34,000  Level FlightAware ADS-B (KPMH)
04:13PM 39.1353 -82.6569 183° South 492 566 34,000  Level FlightAware ADS-B (KPMH)
04:14PM 39.0664 -82.6614 183° South 493 567 34,000  Level FlightAware ADS-B (KPMH)
04:14PM 38.9974 -82.6659 183° South 494 568 34,000  Level FlightAware ADS-B (KPMH)
04:15PM 38.9105 -82.6716 183° South 496 571 34,000  Level FlightAware ADS-B (KPMH)
04:15PM 38.8405 -82.6762 183° South 498 573 34,000  Level FlightAware ADS-B (KPMH)
04:16PM 38.7719 -82.6808 183° South 498 573 34,000  Level FlightAware ADS-B (KPMH)
04:16PM 38.7600 -82.6828 208° Southwest 490 564 34,000  Level Indianapolis Center
04:16PM 38.6925 -82.6860 183° South 497 572 34,000  Level FlightAware ADS-B (KPMH)
04:17PM 38.5986 -82.6919 183° South 491 565 34,000  Level Indianapolis Center
04:18PM 38.4608 -82.7008 183° South 491 565 34,000  Level Indianapolis Center
04:19PM 38.3208 -82.7108 183° South 498 573 34,000  Level Indianapolis Center
04:20PM 38.1833 -82.7203 183° South 497 572 34,000  Level Indianapolis Center
04:21PM 38.0453 -82.7292 183° South 497 572 34,000  Level Indianapolis Center
04:22PM 38.0629 -82.7208 182° South  Level FlightAware Approximate
04:22PM 37.8819 -82.7383 183° South 498 573 34,000  Level Indianapolis Center
04:23PM 37.9426 -82.7274 182° South  Level FlightAware Approximate
04:23PM 37.7439 -82.7494 184° South 498 573 34,000  Level Indianapolis Center
04:24PM 37.8223 -82.7333 180° South  Level FlightAware Approximate
04:24PM 37.6119 -82.7969 196° South 494 568 34,000  Level Indianapolis Center
04:25PM 37.7022 -82.7425 186° South  Level FlightAware Approximate
04:25PM 37.4925 -82.8733 207° Southwest 487 560 34,000  Level Indianapolis Center
04:26PM 37.5901 -82.7902 208° Southwest  Level FlightAware Approximate
04:26PM 37.3731 -82.9531 208° Southwest 484 557 34,000  Level Indianapolis Center
04:27PM 37.2339 -83.0436 207° Southwest 484 557 34,000  Level Indianapolis Center
04:28PM 37.1150 -83.1217 208° Southwest 484 557 34,000  Level Indianapolis Center
04:29PM 36.9956 -83.1997 208° Southwest 485 558 34,000  Level Indianapolis Center
04:30PM 36.8750 -83.2769 207° Southwest 486 559 34,000  Level Indianapolis Center
04:32PM 36.7353 -83.3672 207° Southwest 486 559 34,000  Level Indianapolis Center
04:33PM 36.6147 -83.4442 207° Southwest 486 559 34,000  Level Indianapolis Center
04:34PM 36.4889 -83.5239 207° Southwest 488 562 34,000  Level Indianapolis Center
04:35PM 36.3653 -83.6031 207° Southwest 493 567 34,000  Level Indianapolis Center
04:36PM 36.2419 -83.6833 208° Southwest 496 571 34,000  Level Indianapolis Center
04:37PM 36.0892 -83.7792 207° Southwest 498 573 34,000  Level Atlanta Center
04:38PM 35.9683 -83.8567 207° Southwest 493 567 34,000  Level Atlanta Center
04:44PM 35.1188 -84.0849 191° South 495 570 34,000  Level FlightAware ADS-B (KDZJ)
04:44PM 35.0278 -84.1067 191° South 496 571 34,000  Level FlightAware ADS-B (KDZJ)
04:45PM 34.9419 -84.1271 191° South 496 571 34,000  Level FlightAware ADS-B (KDZJ)
04:46PM 34.8465 -84.1498 191° South 493 567 34,000  Level FlightAware ADS-B (KDZJ)
04:46PM 34.7552 -84.1715 191° South 492 566 34,000 60 Level FlightAware ADS-B (KDZJ)
04:47PM 34.6824 -84.1888 191° South 496 571 34,100 720 Climbing FlightAware ADS-B (KDZJ)
04:48PM 34.5770 -84.2137 191° South 494 568 35,000 600 Climbing FlightAware ADS-B (KDZJ)
04:48PM 34.4782 -84.2370 191° South 491 565 35,000  Level FlightAware ADS-B (KDZJ)
04:49PM 34.3924 -84.2572 191° South 488 562 35,000  Level FlightAware ADS-B (KDZJ)
04:50PM 34.2995 -84.2790 191° South 490 564 35,000  Level FlightAware ADS-B (KDZJ)
04:50PM 34.2076 -84.3006 191° South 490 564 35,000  Level FlightAware ADS-B (KDZJ)
04:51PM 34.1176 -84.3217 191° South 491 565 35,000  Level FlightAware ADS-B (KDZJ)
04:52PM 34.0289 -84.3423 191° South 492 566 35,000  Level FlightAware ADS-B (KDZJ)
04:53PM 33.9211 -84.3692 191° South 508 585 35,000  Level Atlanta Center
04:54PM 33.7833 -84.4011 191° South 508 585 35,000  Level Atlanta Center
04:55PM 33.6475 -84.4306 190° South 508 585 35,000  Level Atlanta Center
04:56PM 33.5056 -84.4375 182° South 516 594 35,000  Level Atlanta Center
04:57PM 33.3636 -84.4344 179° South 511 588 35,000  Level Atlanta Center
04:58PM 33.2258 -84.4286 178° South 511 588 35,000  Level Atlanta Center
04:59PM 33.0881 -84.4306 181° South 504 580 35,000  Level Atlanta Center
05:00PM 32.9525 -84.4275 179° South 493 567 35,000  Level Atlanta Center
05:01PM 32.8167 -84.4244 179° South 493 567 35,000  Level Atlanta Center
05:02PM 32.6792 -84.4139 176° South 493 567 35,000  Level Atlanta Center
05:03PM 32.5433 -84.4133 180° South 493 567 35,000  Level Atlanta Center
05:04PM 32.4097 -84.4128 180° South 493 567 35,000  Level Atlanta Center
05:05PM 32.2783 -84.4097 179° South 493 567 35,000  Level Atlanta Center
05:07PM 32.0136 -84.4019 179° South 478 550 35,000  Level Jacksonville Center
05:13PM 31.1807 -84.2241 158° South 492 566 35,000  Level FlightAware ADS-B (KTLH)
05:14PM 31.0940 -84.1825 157° South 492 566 35,000  Level FlightAware ADS-B (KTLH)
05:15PM 30.9705 -84.1223 157° South 490 564 35,000  Level FlightAware ADS-B (KTLH)
05:16PM 30.8197 -84.0492 157° South 494 568 35,000  Level FlightAware ADS-B (KTLH)
05:17PM 30.7600 -84.0203 157° South 493 567 35,000  Level FlightAware ADS-B (KTLH)
05:17PM 30.6741 -83.9789 157° South 492 566 35,000  Level FlightAware ADS-B (KTLH)
05:18PM 30.6162 -83.9511 157° South 491 565 35,000  Level FlightAware ADS-B (KTLH)
05:18PM 30.5239 -83.9066 157° South 488 562 35,000  Level FlightAware ADS-B (KTLH)
05:19PM 30.4614 -83.8765 158° South 485 558 35,000  Level FlightAware ADS-B (KTLH)
05:20PM 30.3844 -83.8397 157° South 484 557 35,000  Level FlightAware ADS-B (KTLH)
05:20PM 30.2837 -83.7915 158° South 485 558 35,000  Level FlightAware ADS-B (KTLH)
05:21PM 30.2158 -83.7591 158° South 486 559 35,000  Level FlightAware ADS-B (KTLH)
05:22PM 30.0697 -83.6895 157° South 487 560 35,000  Level FlightAware ADS-B (KTLH)
05:23PM 29.9719 -83.6456 157° South 484 557 35,000  Level Jacksonville Center
05:24PM 29.8469 -83.5869 158° South 489 563 35,000  Level Jacksonville Center
05:25PM 29.7200 -83.5264 157° South 489 563 35,000  Level Jacksonville Center
05:26PM 29.5950 -83.4681 158° South 490 564 35,000  Level Jacksonville Center
05:27PM 29.4700 -83.4078 157° South 490 564 35,000  Level Jacksonville Center
05:28PM 29.3450 -83.3500 158° South 490 564 35,000  Level Jacksonville Center
05:33PM 28.6983 -83.0467 158° South 471 542 35,000  Level FlightAware ADS-B (KMCO)
05:34PM 28.6441 -83.0216 158° South 469 540 35,000  Level FlightAware ADS-B (KMCO)
05:35PM 28.4638 -82.9387 158° South 474 545 35,000  Level FlightAware ADS-B (KMCO)
05:36PM 28.3789 -82.8996 158° South 473 544 35,000  Level FlightAware ADS-B (KMCO)
05:36PM 28.3106 -82.8683 158° South 472 543 35,000  Level FlightAware ADS-B (KMCO)
05:37PM 28.2108 -82.8225 158° South 471 542 35,000  Level FlightAware ADS-B (KMCO)
05:38PM 28.0842 -82.7647 158° South 484 557 35,000  Level FlightAware ADS-B (KSFB)
05:39PM 28.2108 -82.8225 158° South 467 537 35,000  Level FlightAware ADS-B (KMCO)
05:40PM 27.8430 -82.6424 149° Southeast 478 550 35,000  Level FlightAware ADS-B (KSFB)
05:41PM 27.7564 -82.5834 149° Southeast 475 547 35,000  Level FlightAware ADS-B (KMCO)
05:42PM 27.6791 -82.5317 149° Southeast 473 544 35,000  Level FlightAware ADS-B (KMCO)
05:42PM 27.6005 -82.4794 149° Southeast 474 545 35,000  Level FlightAware ADS-B (KSFB)
05:43PM 27.5360 -82.4366 149° Southeast 473 544 35,000  Level FlightAware ADS-B (KSFB)
05:43PM 27.4725 -82.3945 149° Southeast 473 544 35,000  Level FlightAware ADS-B (KSFB)
05:44PM 27.4593 -82.3857 150° Southeast 473 544 35,000  Level FlightAware ADS-B (KMCO)
05:44PM 27.3972 -82.3446 149° Southeast 474 545 35,000  Level FlightAware ADS-B (KMCO)
05:45PM 27.3669 -82.3245 149° Southeast 474 545 35,000  Level FlightAware ADS-B (KMCO)
05:45PM 27.2401 -82.2720 178° South 430 495 35,000  Level FlightAware ADS-B (KSFB)
05:46PM 27.1805 -82.2766 184° South 424 488 35,000  Level FlightAware ADS-B (KSFB)
05:47PM 27.1208 -82.2812 184° South 429 494 35,000  Level FlightAware ADS-B (KSFB)
05:47PM 27.0618 -82.2856 184° South 432 497 35,000  Level FlightAware ADS-B (KSFB)
05:48PM 27.0016 -82.2903 184° South 434 499 35,000  Level FlightAware ADS-B (KSFB)
05:48PM 26.9258 -82.2962 184° South 434 499 35,000  Level FlightAware ADS-B (KSFB)
05:49PM 26.8570 -82.3015 184° South 432 497 35,000  Level FlightAware ADS-B (KMCO)
05:49PM 26.7906 -82.3066 184° South 432 497 35,000  Level FlightAware ADS-B (KMCO)
05:50PM 26.7153 -82.3125 184° South 431 496 35,000  Level FlightAware ADS-B (KSFB)
05:51PM 26.6387 -82.3184 184° South 431 496 35,000  Level FlightAware ADS-B (KSFB)
05:51PM 26.5448 -82.3257 184° South 430 495 35,000  Level FlightAware ADS-B (KMCO)
05:52PM 26.4447 -82.3334 184° South 428 493 35,000  Level FlightAware ADS-B (KMCO)
05:53PM 26.3798 -82.3384 184° South 427 491 35,000  Level FlightAware ADS-B (KMCO)
05:53PM 26.3020 -82.3445 184° South 426 490 35,000  Level FlightAware ADS-B (KMCO)
05:54PM 26.2213 -82.3507 184° South 426 490 35,000  Level FlightAware ADS-B (KMCO)
05:55PM 26.1451 -82.3566 184° South 428 493 35,000  Level FlightAware ADS-B (KMCO)
05:55PM 26.0905 -82.3608 184° South 429 494 35,000  Level FlightAware ADS-B (KMCO)
05:56PM 26.0283 -82.3656 184° South 431 496 35,000  Level FlightAware ADS-B (KMCO)
05:56PM 25.9500 -82.3716 184° South 433 498 35,000  Level FlightAware ADS-B (KMCO)
05:57PM 25.8815 -82.3768 184° South 434 499 35,000  Level FlightAware ADS-B (KMCO)
05:58PM 25.8024 -82.3829 184° South 434 499 35,000  Level FlightAware ADS-B (KMCO)
05:58PM 25.7282 -82.3886 184° South 434 499 35,000  Level FlightAware ADS-B (KMCO)
05:59PM 25.6623 -82.3936 184° South 434 499 35,000  Level FlightAware ADS-B (KMCO)
06:00PM 25.5131 -82.4049 184° South 434 499 35,000 -120 Level FlightAware ADS-B (KMCO)
06:01PM 25.3506 -82.4197 184° South 440 506 34,800 -540 Descending Miami Center
06:02PM 25.2269 -82.4303 184° South 440 506 33,800 -900 Descending Miami Center
06:03PM 25.1308 -82.4350 183° South 440 506 33,100 -900 Descending Miami Center
06:04PM 25.0008 -82.4450 184° South 440 506 32,000 -1,260 Descending Miami Center
06:05PM 24.8711 -82.4553 184° South 440 506 30,600 -1,440 Descending Miami Center
06:06PM 24.7581 -82.4639 184° South 429 494 29,200 -1,560 Descending Miami Center
06:07PM 24.6469 -82.4725 184° South 419 482 27,500 -1,680 Descending Miami Center
06:08PM 24.5361 -82.4789 183° South 409 471 25,900 -1,560 Descending Miami Center
06:09PM 24.4314 -82.4878 184° South 398 458 24,400 -1,800 Descending Miami Center
06:10PM 24.3289 -82.4969 185° South 385 443 22,400 -1,200 Descending Miami Center
06:11PM 24.2242 -82.5058 184° South 385 443 22,000 -240 Descending Miami Center
06:12PM 24.1236 -82.5125 183° South 375 432 22,000  Level Miami Center
06:13PM 24.0189 -82.5192 183° South 375 432 22,000  Level Miami Center
06:15PM 23.8818 -82.5044 176° South  Level Estimated
06:22PM 23.0425 -82.4000 180° South  Level FlightAware Approximate
06:23PM 22.9891 -82.4091 180° South  Level Estimated
06:24PM 22.9891 -82.4091 180° South  Level Estimated
06:25PM 22.9891 -82.4091 180° South  Level Estimated
06:26PM 22.9891 -82.4091 180° South  Level Estimated
06:27PM 22.9891 -82.4091 180° South  Level Estimated
06:28PM 22.9891 -82.4091 180° South  Level Estimated
06:29PM 22.9891 -82.4091 180° South  Level Estimated
06:30PM 22.9891 -82.4091 180° South  Level Estimated
06:31PM 22.9891 -82.4091 180° South  Level Estimated
06:32PM 22.9891 -82.4091 180° South  Level Estimated
06:33PM 22.9891 -82.4091 180° South  Level Estimated
06:34PM 22.9891 -82.4091 180° South  Level Estimated
06:35PM 22.9891 -82.4091 180° South  Level Estimated
06:36PM 22.9891 -82.4091 180° South  Level Estimated
06:37PM 22.9891 -82.4091 180° South  Level Estimated
06:38PM 22.9891 -82.4091 180° South  Level Estimated
06:39PM 22.9891 -82.4091 180° South  Level Estimated
06:40PM 22.9891 -82.4091 180° South  Level Estimated
06:41PM 22.9891 -82.4091 180° South  Level Estimated
06:42PM 22.9891 -82.4091 180° South  Level Estimated
06:43PM 22.9891 -82.4091 180° South  Level Estimated
06:44PM 22.9891 -82.4091 180° South  Level Estimated